Main page
METAR-TAF:

METAR-TAF

Airports :

Linz Airport

Linz, Austria

latitude: 48-14N, longitude: 014-11E, elevation: 298 m

Current weather observation

The report was made 26 minutes ago, at 20:20 UTC
Wind 4 kt from the Northwest
Temperature 12°C
Humidity 54%
Pressure 1014 hPa
Visibility 10 km or more
Few clouds at a height of 7000 ft
Broken clouds at a height of 8000 ft

METAR: LOWL 282020Z AUTO 31004KT 9999 FEW070 BKN080 12/03 Q1014 NOSIG

Time: 21:46 (20:46 UTC)

Forecast

The report was made 3 hours and 31 minutes ago, at 17:15 UTC
Forecast valid from 28 at 18 UTC to 29 at 18 UTC
Wind 3 kt from variable directions
Visibility 10 km or more
Scattered clouds at a height of 5000 ft
Probability 30% :
Temporary
from 29 at 10 UTC to 29 at 14 UTC
Wind 10 kt from the West
light rain showers

TAF: LOWL 281715Z 2818/2918 VRB03KT 9999 SCT050 TX13/2818Z TN05/2905Z PROB30 TEMPO 2910/2914 27010KT -SHRA

Weather observations and forecasts of more than 4000 airports (METAR and TAF reports).

The available stations are represented by yellow and red dots on the map.

Hover mouse over dot to see the name of the station.

Then click to see weather observations and forecasts.

To change the map : click on the green buttons with a black cross to zoom in, on the green button with a dash to zoom out, or on the green arrows for adjacent maps.


METAR-TAF: